sensor_id;sensor_type;location;lat;lon;timestamp;temperature;humidity
19908;DHT22;10116;53.112;7.356;2024-01-11T00:00:48;22.30;1.00
19908;DHT22;10116;53.112;7.356;2024-01-11T00:03:14;22.20;1.00
19908;DHT22;10116;53.112;7.356;2024-01-11T00:05:40;22.20;1.00
19908;DHT22;10116;53.112;7.356;2024-01-11T00:08:07;22.20;1.00
19908;DHT22;10116;53.112;7.356;2024-01-11T00:10:33;22.20;1.00
19908;DHT22;10116;53.112;7.356;2024-01-11T00:12:58;22.30;1.00
19908;DHT22;10116;53.112;7.356;2024-01-11T00:15:24;22.20;1.00
19908;DHT22;10116;53.112;7.356;2024-01-11T00:17:49;22.20;1.00
19908;DHT22;10116;53.112;7.356;2024-01-11T00:20:15;22.20;1.00
19908;DHT22;10116;53.112;7.356;2024-01-11T00:22:41;22.20;1.00
19908;DHT22;10116;53.112;7.356;2024-01-11T00:25:07;22.30;1.00
19908;DHT22;10116;53.112;7.356;2024-01-11T00:27:32;22.20;1.00
19908;DHT22;10116;53.112;7.356;2024-01-11T00:29:58;22.20;1.00
19908;DHT22;10116;53.112;7.356;2024-01-11T00:32:24;22.20;1.00
19908;DHT22;10116;53.112;7.356;2024-01-11T00:34:50;22.20;1.00
19908;DHT22;10116;53.112;7.356;2024-01-11T00:37:16;22.20;1.00
19908;DHT22;10116;53.112;7.356;2024-01-11T00:39:42;22.20;1.00
19908;DHT22;10116;53.112;7.356;2024-01-11T00:42:08;22.20;1.00
19908;DHT22;10116;53.112;7.356;2024-01-11T00:44:33;22.20;1.00
19908;DHT22;10116;53.112;7.356;2024-01-11T00:46:59;22.20;1.00
19908;DHT22;10116;53.112;7.356;2024-01-11T00:49:25;22.20;1.00
19908;DHT22;10116;53.112;7.356;2024-01-11T00:51:50;22.20;1.00
19908;DHT22;10116;53.112;7.356;2024-01-11T00:54:16;22.30;1.00
19908;DHT22;10116;53.112;7.356;2024-01-11T00:56:41;22.30;1.00
19908;DHT22;10116;53.112;7.356;2024-01-11T00:59:07;22.40;1.00
19908;DHT22;10116;53.112;7.356;2024-01-11T01:01:33;22.50;1.00
19908;DHT22;10116;53.112;7.356;2024-01-11T01:03:58;22.50;1.00
19908;DHT22;10116;53.112;7.356;2024-01-11T01:06:24;22.50;1.00
19908;DHT22;10116;53.112;7.356;2024-01-11T01:08:50;22.60;1.00
19908;DHT22;10116;53.112;7.356;2024-01-11T01:11:15;22.60;1.00
19908;DHT22;10116;53.112;7.356;2024-01-11T01:13:41;22.60;1.00
19908;DHT22;10116;53.112;7.356;2024-01-11T01:16:06;22.60;1.00
19908;DHT22;10116;53.112;7.356;2024-01-11T01:18:32;22.60;1.00
19908;DHT22;10116;53.112;7.356;2024-01-11T01:20:58;22.60;1.00
19908;DHT22;10116;53.112;7.356;2024-01-11T01:23:23;22.60;1.00
19908;DHT22;10116;53.112;7.356;2024-01-11T01:25:49;22.60;1.00
19908;DHT22;10116;53.112;7.356;2024-01-11T01:28:15;22.60;1.00
19908;DHT22;10116;53.112;7.356;2024-01-11T01:30:40;22.60;1.00
19908;DHT22;10116;53.112;7.356;2024-01-11T01:33:06;22.60;1.00
19908;DHT22;10116;53.112;7.356;2024-01-11T01:35:31;22.50;1.00
19908;DHT22;10116;53.112;7.356;2024-01-11T01:37:58;22.50;1.00
19908;DHT22;10116;53.112;7.356;2024-01-11T01:40:24;22.50;1.00
19908;DHT22;10116;53.112;7.356;2024-01-11T01:42:50;22.50;1.00
19908;DHT22;10116;53.112;7.356;2024-01-11T01:45:15;22.50;1.00
19908;DHT22;10116;53.112;7.356;2024-01-11T01:47:42;22.50;1.00
19908;DHT22;10116;53.112;7.356;2024-01-11T01:50:10;22.50;1.00
19908;DHT22;10116;53.112;7.356;2024-01-11T01:52:38;22.50;1.00
19908;DHT22;10116;53.112;7.356;2024-01-11T01:55:05;22.50;1.00
19908;DHT22;10116;53.112;7.356;2024-01-11T01:57:34;22.50;1.00
19908;DHT22;10116;53.112;7.356;2024-01-11T02:00:00;22.50;1.00
19908;DHT22;10116;53.112;7.356;2024-01-11T02:02:27;22.50;1.00
19908;DHT22;10116;53.112;7.356;2024-01-11T02:04:54;22.50;1.00
19908;DHT22;10116;53.112;7.356;2024-01-11T02:07:20;22.50;1.00
19908;DHT22;10116;53.112;7.356;2024-01-11T02:09:46;22.40;1.00
19908;DHT22;10116;53.112;7.356;2024-01-11T02:12:13;22.40;1.00
19908;DHT22;10116;53.112;7.356;2024-01-11T02:14:40;22.40;1.00
19908;DHT22;10116;53.112;7.356;2024-01-11T02:17:06;22.40;1.00
19908;DHT22;10116;53.112;7.356;2024-01-11T02:19:32;22.40;1.00
19908;DHT22;10116;53.112;7.356;2024-01-11T02:22:02;22.40;1.00
19908;DHT22;10116;53.112;7.356;2024-01-11T02:24:31;22.40;1.00
19908;DHT22;10116;53.112;7.356;2024-01-11T02:27:04;22.40;1.00
19908;DHT22;10116;53.112;7.356;2024-01-11T02:29:30;22.40;1.00
19908;DHT22;10116;53.112;7.356;2024-01-11T02:31:57;22.40;1.00
19908;DHT22;10116;53.112;7.356;2024-01-11T02:34:24;22.40;1.00
19908;DHT22;10116;53.112;7.356;2024-01-11T02:36:52;22.40;1.00
19908;DHT22;10116;53.112;7.356;2024-01-11T02:39:19;22.40;1.00
19908;DHT22;10116;53.112;7.356;2024-01-11T02:41:45;22.40;1.00
19908;DHT22;10116;53.112;7.356;2024-01-11T02:44:11;22.40;1.00
19908;DHT22;10116;53.112;7.356;2024-01-11T02:46:37;22.40;1.00
19908;DHT22;10116;53.112;7.356;2024-01-11T02:49:03;22.40;1.00
19908;DHT22;10116;53.112;7.356;2024-01-11T02:51:28;22.40;1.00
19908;DHT22;10116;53.112;7.356;2024-01-11T02:53:54;22.40;1.00
19908;DHT22;10116;53.112;7.356;2024-01-11T02:56:20;22.40;1.00
19908;DHT22;10116;53.112;7.356;2024-01-11T02:58:45;22.40;1.00
19908;DHT22;10116;53.112;7.356;2024-01-11T03:01:11;22.40;1.00
19908;DHT22;10116;53.112;7.356;2024-01-11T03:03:37;22.40;1.00
19908;DHT22;10116;53.112;7.356;2024-01-11T03:06:03;22.40;1.00
19908;DHT22;10116;53.112;7.356;2024-01-11T03:08:29;22.40;1.00
19908;DHT22;10116;53.112;7.356;2024-01-11T03:10:54;22.40;1.00
19908;DHT22;10116;53.112;7.356;2024-01-11T03:13:20;22.30;1.00
19908;DHT22;10116;53.112;7.356;2024-01-11T03:15:46;22.40;1.00
19908;DHT22;10116;53.112;7.356;2024-01-11T03:18:11;22.30;1.00
19908;DHT22;10116;53.112;7.356;2024-01-11T03:20:37;22.30;1.00
19908;DHT22;10116;53.112;7.356;2024-01-11T03:23:03;22.30;1.00
19908;DHT22;10116;53.112;7.356;2024-01-11T03:25:31;22.30;1.00
19908;DHT22;10116;53.112;7.356;2024-01-11T03:28:00;22.30;1.00
19908;DHT22;10116;53.112;7.356;2024-01-11T03:30:26;22.30;1.00
19908;DHT22;10116;53.112;7.356;2024-01-11T03:32:52;22.30;1.00
19908;DHT22;10116;53.112;7.356;2024-01-11T03:35:18;22.30;1.00
19908;DHT22;10116;53.112;7.356;2024-01-11T03:37:44;22.30;1.00
19908;DHT22;10116;53.112;7.356;2024-01-11T03:40:10;22.30;1.00
19908;DHT22;10116;53.112;7.356;2024-01-11T03:42:35;22.30;1.00
19908;DHT22;10116;53.112;7.356;2024-01-11T03:45:01;22.30;1.00
19908;DHT22;10116;53.112;7.356;2024-01-11T03:47:27;22.20;1.00
19908;DHT22;10116;53.112;7.356;2024-01-11T03:49:52;22.20;1.00
19908;DHT22;10116;53.112;7.356;2024-01-11T03:52:18;22.20;1.00
19908;DHT22;10116;53.112;7.356;2024-01-11T03:54:44;22.20;1.00
19908;DHT22;10116;53.112;7.356;2024-01-11T03:57:10;22.30;1.00
19908;DHT22;10116;53.112;7.356;2024-01-11T03:59:35;22.30;1.00
19908;DHT22;10116;53.112;7.356;2024-01-11T04:02:01;22.20;1.00
19908;DHT22;10116;53.112;7.356;2024-01-11T04:04:27;22.20;1.00
19908;DHT22;10116;53.112;7.356;2024-01-11T04:06:52;22.20;1.00
19908;DHT22;10116;53.112;7.356;2024-01-11T04:09:18;22.20;1.00
19908;DHT22;10116;53.112;7.356;2024-01-11T04:11:45;22.20;1.00
19908;DHT22;10116;53.112;7.356;2024-01-11T04:14:11;22.20;1.00
19908;DHT22;10116;53.112;7.356;2024-01-11T04:16:41;22.20;1.00
19908;DHT22;10116;53.112;7.356;2024-01-11T04:19:07;22.20;1.00
19908;DHT22;10116;53.112;7.356;2024-01-11T04:21:33;22.20;1.00
19908;DHT22;10116;53.112;7.356;2024-01-11T04:23:59;22.20;1.00
19908;DHT22;10116;53.112;7.356;2024-01-11T04:26:24;22.20;1.00
19908;DHT22;10116;53.112;7.356;2024-01-11T04:28:52;22.20;1.00
19908;DHT22;10116;53.112;7.356;2024-01-11T04:31:17;22.30;1.00
19908;DHT22;10116;53.112;7.356;2024-01-11T04:33:44;22.30;1.00
19908;DHT22;10116;53.112;7.356;2024-01-11T04:36:10;22.40;1.00
19908;DHT22;10116;53.112;7.356;2024-01-11T04:38:37;22.40;1.00
19908;DHT22;10116;53.112;7.356;2024-01-11T04:41:09;22.50;1.00
19908;DHT22;10116;53.112;7.356;2024-01-11T04:43:44;22.50;1.00
19908;DHT22;10116;53.112;7.356;2024-01-11T04:46:17;22.60;1.00
19908;DHT22;10116;53.112;7.356;2024-01-11T04:48:44;22.60;1.00
19908;DHT22;10116;53.112;7.356;2024-01-11T04:51:10;22.70;1.00
19908;DHT22;10116;53.112;7.356;2024-01-11T04:53:37;22.70;1.00
19908;DHT22;10116;53.112;7.356;2024-01-11T04:56:04;22.70;1.00
19908;DHT22;10116;53.112;7.356;2024-01-11T04:58:29;22.70;1.00
19908;DHT22;10116;53.112;7.356;2024-01-11T05:00:55;22.70;1.00
19908;DHT22;10116;53.112;7.356;2024-01-11T05:03:20;22.70;1.00
19908;DHT22;10116;53.112;7.356;2024-01-11T05:05:46;22.70;1.00
19908;DHT22;10116;53.112;7.356;2024-01-11T05:08:12;22.70;1.00
19908;DHT22;10116;53.112;7.356;2024-01-11T05:10:37;22.60;1.00
19908;DHT22;10116;53.112;7.356;2024-01-11T05:13:03;22.70;1.00
19908;DHT22;10116;53.112;7.356;2024-01-11T05:15:29;22.70;1.00
19908;DHT22;10116;53.112;7.356;2024-01-11T05:17:58;22.70;1.00
19908;DHT22;10116;53.112;7.356;2024-01-11T05:20:24;22.70;1.00
19908;DHT22;10116;53.112;7.356;2024-01-11T05:22:49;22.70;1.00
19908;DHT22;10116;53.112;7.356;2024-01-11T05:25:15;22.70;1.00
19908;DHT22;10116;53.112;7.356;2024-01-11T05:27:41;22.70;1.00
19908;DHT22;10116;53.112;7.356;2024-01-11T05:30:07;22.70;1.00
19908;DHT22;10116;53.112;7.356;2024-01-11T05:32:32;22.70;1.00
19908;DHT22;10116;53.112;7.356;2024-01-11T05:34:58;22.70;1.00
19908;DHT22;10116;53.112;7.356;2024-01-11T05:37:24;22.70;1.00
19908;DHT22;10116;53.112;7.356;2024-01-11T05:39:49;22.70;1.00
19908;DHT22;10116;53.112;7.356;2024-01-11T05:42:15;22.70;1.00
19908;DHT22;10116;53.112;7.356;2024-01-11T05:44:41;22.70;1.00
19908;DHT22;10116;53.112;7.356;2024-01-11T05:47:06;22.60;1.00
19908;DHT22;10116;53.112;7.356;2024-01-11T05:49:32;22.60;1.00
19908;DHT22;10116;53.112;7.356;2024-01-11T05:51:58;22.60;1.00
19908;DHT22;10116;53.112;7.356;2024-01-11T05:54:23;22.60;1.00
19908;DHT22;10116;53.112;7.356;2024-01-11T05:56:49;22.60;1.00
19908;DHT22;10116;53.112;7.356;2024-01-11T05:59:18;22.60;1.00
19908;DHT22;10116;53.112;7.356;2024-01-11T06:01:43;22.60;1.00
19908;DHT22;10116;53.112;7.356;2024-01-11T06:04:09;22.60;1.00
19908;DHT22;10116;53.112;7.356;2024-01-11T06:06:35;22.60;1.00
19908;DHT22;10116;53.112;7.356;2024-01-11T06:09:00;22.60;1.00
19908;DHT22;10116;53.112;7.356;2024-01-11T06:11:29;22.60;1.00
19908;DHT22;10116;53.112;7.356;2024-01-11T06:13:55;22.60;1.00
19908;DHT22;10116;53.112;7.356;2024-01-11T06:16:21;22.60;1.00
19908;DHT22;10116;53.112;7.356;2024-01-11T06:18:46;22.60;1.00
19908;DHT22;10116;53.112;7.356;2024-01-11T06:21:12;22.70;1.00
19908;DHT22;10116;53.112;7.356;2024-01-11T06:23:38;22.70;1.00
19908;DHT22;10116;53.112;7.356;2024-01-11T06:26:03;22.80;1.00
19908;DHT22;10116;53.112;7.356;2024-01-11T06:28:29;22.80;1.00
19908;DHT22;10116;53.112;7.356;2024-01-11T06:30:55;22.90;1.00
19908;DHT22;10116;53.112;7.356;2024-01-11T06:33:21;22.90;1.00
19908;DHT22;10116;53.112;7.356;2024-01-11T06:35:46;22.90;1.00
19908;DHT22;10116;53.112;7.356;2024-01-11T06:38:12;23.00;1.00
19908;DHT22;10116;53.112;7.356;2024-01-11T06:40:38;23.00;1.00
19908;DHT22;10116;53.112;7.356;2024-01-11T06:43:03;23.00;1.00
19908;DHT22;10116;53.112;7.356;2024-01-11T06:45:29;23.00;1.00
19908;DHT22;10116;53.112;7.356;2024-01-11T06:47:54;23.00;1.00
19908;DHT22;10116;53.112;7.356;2024-01-11T06:50:20;23.00;1.00
19908;DHT22;10116;53.112;7.356;2024-01-11T06:52:46;23.00;1.00
19908;DHT22;10116;53.112;7.356;2024-01-11T06:55:11;23.00;1.00
19908;DHT22;10116;53.112;7.356;2024-01-11T06:57:37;23.00;1.00
19908;DHT22;10116;53.112;7.356;2024-01-11T07:00:03;23.00;1.00
19908;DHT22;10116;53.112;7.356;2024-01-11T07:02:29;23.00;1.00
19908;DHT22;10116;53.112;7.356;2024-01-11T07:04:55;23.00;1.00
19908;DHT22;10116;53.112;7.356;2024-01-11T07:07:20;23.00;1.00
19908;DHT22;10116;53.112;7.356;2024-01-11T07:09:46;23.00;1.00
19908;DHT22;10116;53.112;7.356;2024-01-11T07:12:12;23.00;1.00
19908;DHT22;10116;53.112;7.356;2024-01-11T07:14:37;23.00;1.00
19908;DHT22;10116;53.112;7.356;2024-01-11T07:17:03;23.00;1.00
19908;DHT22;10116;53.112;7.356;2024-01-11T07:19:29;22.90;1.00
19908;DHT22;10116;53.112;7.356;2024-01-11T07:21:55;22.80;1.00
19908;DHT22;10116;53.112;7.356;2024-01-11T07:24:20;22.50;1.00
19908;DHT22;10116;53.112;7.356;2024-01-11T07:26:46;22.30;1.00
19908;DHT22;10116;53.112;7.356;2024-01-11T07:29:14;22.20;1.00
19908;DHT22;10116;53.112;7.356;2024-01-11T07:31:39;22.00;1.00
19908;DHT22;10116;53.112;7.356;2024-01-11T07:34:05;21.90;1.00
19908;DHT22;10116;53.112;7.356;2024-01-11T07:36:31;21.80;1.00
19908;DHT22;10116;53.112;7.356;2024-01-11T07:38:56;21.70;1.00
19908;DHT22;10116;53.112;7.356;2024-01-11T07:41:22;21.60;1.00
19908;DHT22;10116;53.112;7.356;2024-01-11T07:43:48;21.50;1.00
19908;DHT22;10116;53.112;7.356;2024-01-11T07:46:14;21.40;1.00
19908;DHT22;10116;53.112;7.356;2024-01-11T07:48:39;21.40;1.00
19908;DHT22;10116;53.112;7.356;2024-01-11T07:51:05;21.40;1.00
19908;DHT22;10116;53.112;7.356;2024-01-11T07:53:31;21.30;1.00
19908;DHT22;10116;53.112;7.356;2024-01-11T07:55:57;21.30;1.00
19908;DHT22;10116;53.112;7.356;2024-01-11T07:58:23;21.30;1.00
19908;DHT22;10116;53.112;7.356;2024-01-11T08:00:49;21.40;1.00
19908;DHT22;10116;53.112;7.356;2024-01-11T08:03:15;21.50;1.00
19908;DHT22;10116;53.112;7.356;2024-01-11T08:05:41;21.70;1.00
19908;DHT22;10116;53.112;7.356;2024-01-11T08:08:08;21.90;1.00
19908;DHT22;10116;53.112;7.356;2024-01-11T08:10:33;22.00;1.00
19908;DHT22;10116;53.112;7.356;2024-01-11T08:12:59;22.10;1.00
19908;DHT22;10116;53.112;7.356;2024-01-11T08:15:25;22.20;1.00
19908;DHT22;10116;53.112;7.356;2024-01-11T08:17:51;22.20;1.00
19908;DHT22;10116;53.112;7.356;2024-01-11T08:20:16;22.30;1.00
19908;DHT22;10116;53.112;7.356;2024-01-11T08:22:42;22.30;1.00
19908;DHT22;10116;53.112;7.356;2024-01-11T08:25:14;22.30;1.00
19908;DHT22;10116;53.112;7.356;2024-01-11T08:27:40;22.30;1.00
19908;DHT22;10116;53.112;7.356;2024-01-11T08:30:06;22.10;1.00
19908;DHT22;10116;53.112;7.356;2024-01-11T08:32:33;21.80;1.00
19908;DHT22;10116;53.112;7.356;2024-01-11T08:35:08;21.60;1.00
19908;DHT22;10116;53.112;7.356;2024-01-11T08:37:35;21.50;1.00
19908;DHT22;10116;53.112;7.356;2024-01-11T08:40:01;21.40;1.00
19908;DHT22;10116;53.112;7.356;2024-01-11T08:42:30;21.30;1.00
19908;DHT22;10116;53.112;7.356;2024-01-11T08:44:56;21.20;1.00
19908;DHT22;10116;53.112;7.356;2024-01-11T08:47:21;21.10;1.00
19908;DHT22;10116;53.112;7.356;2024-01-11T08:49:47;21.00;1.00
19908;DHT22;10116;53.112;7.356;2024-01-11T08:52:13;20.90;1.00
19908;DHT22;10116;53.112;7.356;2024-01-11T08:54:38;20.80;1.00
19908;DHT22;10116;53.112;7.356;2024-01-11T08:57:04;20.80;1.00
19908;DHT22;10116;53.112;7.356;2024-01-11T08:59:30;20.80;1.00
19908;DHT22;10116;53.112;7.356;2024-01-11T09:01:55;20.80;1.00
19908;DHT22;10116;53.112;7.356;2024-01-11T09:04:21;20.80;1.00
19908;DHT22;10116;53.112;7.356;2024-01-11T09:06:47;20.80;1.00
19908;DHT22;10116;53.112;7.356;2024-01-11T09:09:12;20.90;1.00
19908;DHT22;10116;53.112;7.356;2024-01-11T09:11:40;20.90;1.00
19908;DHT22;10116;53.112;7.356;2024-01-11T09:14:08;20.90;1.00
19908;DHT22;10116;53.112;7.356;2024-01-11T09:16:36;20.90;1.00
19908;DHT22;10116;53.112;7.356;2024-01-11T09:19:02;20.90;1.00
19908;DHT22;10116;53.112;7.356;2024-01-11T09:21:28;21.00;1.00
19908;DHT22;10116;53.112;7.356;2024-01-11T09:23:53;21.00;1.00
19908;DHT22;10116;53.112;7.356;2024-01-11T09:26:19;21.00;1.00
19908;DHT22;10116;53.112;7.356;2024-01-11T09:28:44;21.00;1.00
19908;DHT22;10116;53.112;7.356;2024-01-11T09:31:11;21.00;1.00
19908;DHT22;10116;53.112;7.356;2024-01-11T09:33:37;21.00;1.00
19908;DHT22;10116;53.112;7.356;2024-01-11T09:36:03;21.00;1.00
19908;DHT22;10116;53.112;7.356;2024-01-11T09:38:29;21.00;1.00
19908;DHT22;10116;53.112;7.356;2024-01-11T09:41:08;21.00;1.00
19908;DHT22;10116;53.112;7.356;2024-01-11T09:43:35;21.00;1.00
19908;DHT22;10116;53.112;7.356;2024-01-11T09:46:05;20.90;1.00
19908;DHT22;10116;53.112;7.356;2024-01-11T09:48:35;20.90;1.00
19908;DHT22;10116;53.112;7.356;2024-01-11T09:51:10;20.90;1.00
19908;DHT22;10116;53.112;7.356;2024-01-11T09:53:38;20.90;1.00
19908;DHT22;10116;53.112;7.356;2024-01-11T09:56:08;20.90;1.00
19908;DHT22;10116;53.112;7.356;2024-01-11T09:58:34;20.90;1.00
19908;DHT22;10116;53.112;7.356;2024-01-11T10:01:09;20.90;1.00
19908;DHT22;10116;53.112;7.356;2024-01-11T10:03:36;20.90;1.00
19908;DHT22;10116;53.112;7.356;2024-01-11T10:06:02;20.90;1.00
19908;DHT22;10116;53.112;7.356;2024-01-11T10:08:29;20.90;1.00
19908;DHT22;10116;53.112;7.356;2024-01-11T10:10:55;20.90;1.00
19908;DHT22;10116;53.112;7.356;2024-01-11T10:13:27;20.90;1.00
19908;DHT22;10116;53.112;7.356;2024-01-11T10:16:11;20.90;1.00
19908;DHT22;10116;53.112;7.356;2024-01-11T10:18:43;20.90;1.00
19908;DHT22;10116;53.112;7.356;2024-01-11T10:21:09;20.90;1.00
19908;DHT22;10116;53.112;7.356;2024-01-11T10:23:38;20.90;1.00
19908;DHT22;10116;53.112;7.356;2024-01-11T10:26:04;20.90;1.00
19908;DHT22;10116;53.112;7.356;2024-01-11T10:28:30;20.90;1.00
19908;DHT22;10116;53.112;7.356;2024-01-11T10:30:56;20.90;1.00
19908;DHT22;10116;53.112;7.356;2024-01-11T10:33:22;20.90;1.00
19908;DHT22;10116;53.112;7.356;2024-01-11T10:35:49;20.90;1.00
19908;DHT22;10116;53.112;7.356;2024-01-11T10:38:15;20.90;1.00
19908;DHT22;10116;53.112;7.356;2024-01-11T10:40:42;20.90;1.00
19908;DHT22;10116;53.112;7.356;2024-01-11T10:43:11;20.90;1.00
19908;DHT22;10116;53.112;7.356;2024-01-11T10:45:37;20.80;1.00
19908;DHT22;10116;53.112;7.356;2024-01-11T10:48:16;20.90;1.00
19908;DHT22;10116;53.112;7.356;2024-01-11T10:50:43;20.90;1.00
19908;DHT22;10116;53.112;7.356;2024-01-11T10:53:31;20.90;1.00
19908;DHT22;10116;53.112;7.356;2024-01-11T10:56:03;20.90;1.00
19908;DHT22;10116;53.112;7.356;2024-01-11T10:58:30;20.90;1.00
19908;DHT22;10116;53.112;7.356;2024-01-11T11:00:57;20.90;1.00
19908;DHT22;10116;53.112;7.356;2024-01-11T11:03:26;20.90;1.00
19908;DHT22;10116;53.112;7.356;2024-01-11T11:05:54;20.90;1.00
19908;DHT22;10116;53.112;7.356;2024-01-11T11:08:22;20.90;1.00
19908;DHT22;10116;53.112;7.356;2024-01-11T11:10:51;21.00;1.00
19908;DHT22;10116;53.112;7.356;2024-01-11T11:13:21;21.00;1.00
19908;DHT22;10116;53.112;7.356;2024-01-11T11:15:48;21.10;1.00
19908;DHT22;10116;53.112;7.356;2024-01-11T11:18:14;21.20;1.00
19908;DHT22;10116;53.112;7.356;2024-01-11T11:20:41;21.20;1.00
19908;DHT22;10116;53.112;7.356;2024-01-11T11:23:14;21.40;1.00
19908;DHT22;10116;53.112;7.356;2024-01-11T11:25:41;21.60;1.00
19908;DHT22;10116;53.112;7.356;2024-01-11T11:28:07;21.70;1.00
19908;DHT22;10116;53.112;7.356;2024-01-11T11:30:37;21.90;1.00
19908;DHT22;10116;53.112;7.356;2024-01-11T11:33:20;22.10;1.00
19908;DHT22;10116;53.112;7.356;2024-01-11T11:35:48;22.00;1.00
19908;DHT22;10116;53.112;7.356;2024-01-11T11:38:30;21.80;1.00
19908;DHT22;10116;53.112;7.356;2024-01-11T11:40:57;21.60;1.00
19908;DHT22;10116;53.112;7.356;2024-01-11T11:43:25;21.50;1.00
19908;DHT22;10116;53.112;7.356;2024-01-11T11:45:52;21.50;1.00
19908;DHT22;10116;53.112;7.356;2024-01-11T11:51:15;21.30;1.00
19908;DHT22;10116;53.112;7.356;2024-01-11T11:53:41;21.30;1.00
19908;DHT22;10116;53.112;7.356;2024-01-11T11:56:08;21.20;1.00
19908;DHT22;10116;53.112;7.356;2024-01-11T11:58:38;21.20;1.00
19908;DHT22;10116;53.112;7.356;2024-01-11T12:01:06;21.10;1.00
19908;DHT22;10116;53.112;7.356;2024-01-11T12:03:41;21.10;1.00
19908;DHT22;10116;53.112;7.356;2024-01-11T12:06:10;21.00;1.00
19908;DHT22;10116;53.112;7.356;2024-01-11T12:08:36;21.00;1.00
19908;DHT22;10116;53.112;7.356;2024-01-11T12:11:03;21.00;1.00
19908;DHT22;10116;53.112;7.356;2024-01-11T12:13:29;21.00;1.00
19908;DHT22;10116;53.112;7.356;2024-01-11T12:15:56;21.10;1.00
19908;DHT22;10116;53.112;7.356;2024-01-11T12:18:22;21.10;1.00
19908;DHT22;10116;53.112;7.356;2024-01-11T12:20:48;21.10;1.00
19908;DHT22;10116;53.112;7.356;2024-01-11T12:23:14;21.10;1.00
19908;DHT22;10116;53.112;7.356;2024-01-11T12:25:41;21.10;1.00
19908;DHT22;10116;53.112;7.356;2024-01-11T12:28:07;21.10;1.00
19908;DHT22;10116;53.112;7.356;2024-01-11T12:30:33;21.10;1.00
19908;DHT22;10116;53.112;7.356;2024-01-11T12:32:59;21.10;1.00
19908;DHT22;10116;53.112;7.356;2024-01-11T12:35:30;21.10;1.00
19908;DHT22;10116;53.112;7.356;2024-01-11T12:38:04;21.20;1.00
19908;DHT22;10116;53.112;7.356;2024-01-11T12:40:35;21.20;1.00
19908;DHT22;10116;53.112;7.356;2024-01-11T12:43:03;21.20;1.00
19908;DHT22;10116;53.112;7.356;2024-01-11T12:45:29;21.20;1.00
19908;DHT22;10116;53.112;7.356;2024-01-11T12:48:01;21.20;1.00
19908;DHT22;10116;53.112;7.356;2024-01-11T12:50:29;21.20;1.00
19908;DHT22;10116;53.112;7.356;2024-01-11T12:53:10;21.20;1.00
19908;DHT22;10116;53.112;7.356;2024-01-11T12:56:01;21.30;1.00
19908;DHT22;10116;53.112;7.356;2024-01-11T12:58:28;21.30;1.00
19908;DHT22;10116;53.112;7.356;2024-01-11T13:00:54;21.30;1.00
19908;DHT22;10116;53.112;7.356;2024-01-11T13:03:20;21.20;1.00
19908;DHT22;10116;53.112;7.356;2024-01-11T13:05:46;21.30;1.00
19908;DHT22;10116;53.112;7.356;2024-01-11T13:08:12;21.30;1.00
19908;DHT22;10116;53.112;7.356;2024-01-11T13:10:38;21.30;1.00
19908;DHT22;10116;53.112;7.356;2024-01-11T13:13:04;21.30;1.00
19908;DHT22;10116;53.112;7.356;2024-01-11T13:15:31;21.30;1.00
19908;DHT22;10116;53.112;7.356;2024-01-11T13:17:58;21.30;1.00
19908;DHT22;10116;53.112;7.356;2024-01-11T13:20:23;21.30;1.00
19908;DHT22;10116;53.112;7.356;2024-01-11T13:23:18;21.20;1.00
19908;DHT22;10116;53.112;7.356;2024-01-11T13:25:48;21.20;1.00
19908;DHT22;10116;53.112;7.356;2024-01-11T13:28:14;21.20;1.00
19908;DHT22;10116;53.112;7.356;2024-01-11T13:30:41;21.20;1.00
19908;DHT22;10116;53.112;7.356;2024-01-11T13:33:09;21.20;1.00
19908;DHT22;10116;53.112;7.356;2024-01-11T13:35:36;21.20;1.00
19908;DHT22;10116;53.112;7.356;2024-01-11T13:38:03;21.20;1.00
19908;DHT22;10116;53.112;7.356;2024-01-11T13:40:30;21.20;1.00
19908;DHT22;10116;53.112;7.356;2024-01-11T13:42:56;21.20;1.00
19908;DHT22;10116;53.112;7.356;2024-01-11T13:45:23;21.10;1.00
19908;DHT22;10116;53.112;7.356;2024-01-11T13:47:49;21.10;1.00
19908;DHT22;10116;53.112;7.356;2024-01-11T13:50:15;21.10;1.00
19908;DHT22;10116;53.112;7.356;2024-01-11T13:52:42;21.10;1.00
19908;DHT22;10116;53.112;7.356;2024-01-11T13:55:08;21.10;1.00
19908;DHT22;10116;53.112;7.356;2024-01-11T13:57:36;21.10;1.00
19908;DHT22;10116;53.112;7.356;2024-01-11T14:00:06;21.10;1.00
19908;DHT22;10116;53.112;7.356;2024-01-11T14:02:35;21.10;1.00
19908;DHT22;10116;53.112;7.356;2024-01-11T14:05:00;21.10;1.00
19908;DHT22;10116;53.112;7.356;2024-01-11T14:07:26;21.10;1.00
19908;DHT22;10116;53.112;7.356;2024-01-11T14:09:51;21.10;1.00
19908;DHT22;10116;53.112;7.356;2024-01-11T14:12:17;21.10;1.00
19908;DHT22;10116;53.112;7.356;2024-01-11T14:14:43;21.10;1.00
19908;DHT22;10116;53.112;7.356;2024-01-11T14:17:09;21.10;1.00
19908;DHT22;10116;53.112;7.356;2024-01-11T14:19:35;21.10;1.00
19908;DHT22;10116;53.112;7.356;2024-01-11T14:22:01;21.20;1.00
19908;DHT22;10116;53.112;7.356;2024-01-11T14:24:27;21.20;1.00
19908;DHT22;10116;53.112;7.356;2024-01-11T14:26:53;21.20;1.00
19908;DHT22;10116;53.112;7.356;2024-01-11T14:29:19;21.20;1.00
19908;DHT22;10116;53.112;7.356;2024-01-11T14:31:45;21.30;1.00
19908;DHT22;10116;53.112;7.356;2024-01-11T14:34:11;21.30;1.00
19908;DHT22;10116;53.112;7.356;2024-01-11T14:36:37;21.30;1.00
19908;DHT22;10116;53.112;7.356;2024-01-11T14:39:03;21.30;1.00
19908;DHT22;10116;53.112;7.356;2024-01-11T14:41:33;21.20;1.00
19908;DHT22;10116;53.112;7.356;2024-01-11T14:43:59;21.20;1.00
19908;DHT22;10116;53.112;7.356;2024-01-11T14:46:29;21.20;1.00
19908;DHT22;10116;53.112;7.356;2024-01-11T14:48:54;21.20;1.00
19908;DHT22;10116;53.112;7.356;2024-01-11T14:51:20;21.30;1.00
19908;DHT22;10116;53.112;7.356;2024-01-11T14:53:45;21.20;1.00
19908;DHT22;10116;53.112;7.356;2024-01-11T14:56:11;21.20;1.00
19908;DHT22;10116;53.112;7.356;2024-01-11T14:58:38;21.30;1.00
19908;DHT22;10116;53.112;7.356;2024-01-11T15:01:03;21.30;1.00
19908;DHT22;10116;53.112;7.356;2024-01-11T15:03:30;21.30;1.00
19908;DHT22;10116;53.112;7.356;2024-01-11T15:05:56;21.30;1.00
19908;DHT22;10116;53.112;7.356;2024-01-11T15:08:22;21.30;1.00
19908;DHT22;10116;53.112;7.356;2024-01-11T15:10:48;21.20;1.00
19908;DHT22;10116;53.112;7.356;2024-01-11T15:13:14;21.30;1.00
19908;DHT22;10116;53.112;7.356;2024-01-11T15:15:40;21.20;1.00
19908;DHT22;10116;53.112;7.356;2024-01-11T15:18:06;21.30;1.00
19908;DHT22;10116;53.112;7.356;2024-01-11T15:20:32;21.30;1.00
19908;DHT22;10116;53.112;7.356;2024-01-11T15:22:57;21.20;1.00
19908;DHT22;10116;53.112;7.356;2024-01-11T15:25:23;21.20;1.00
19908;DHT22;10116;53.112;7.356;2024-01-11T15:27:53;21.20;1.00
19908;DHT22;10116;53.112;7.356;2024-01-11T15:30:18;21.20;1.00
19908;DHT22;10116;53.112;7.356;2024-01-11T15:32:44;21.20;1.00
19908;DHT22;10116;53.112;7.356;2024-01-11T15:35:10;21.20;1.00
19908;DHT22;10116;53.112;7.356;2024-01-11T15:37:37;21.20;1.00
19908;DHT22;10116;53.112;7.356;2024-01-11T15:40:03;21.20;1.00
19908;DHT22;10116;53.112;7.356;2024-01-11T15:42:30;21.20;1.00
19908;DHT22;10116;53.112;7.356;2024-01-11T15:44:56;21.20;1.00